sensor_id;sensor_type;location;lat;lon;timestamp;temperature;humidity
22249;DHT22;67538;52.180;5.646;2023-08-21T00:01:42;16.40;99.90
22249;DHT22;67538;52.180;5.646;2023-08-21T00:04:09;16.50;99.90
22249;DHT22;67538;52.180;5.646;2023-08-21T00:06:36;16.50;99.90
22249;DHT22;67538;52.180;5.646;2023-08-21T00:09:03;16.50;99.90
22249;DHT22;67538;52.180;5.646;2023-08-21T00:11:30;16.50;99.90
22249;DHT22;67538;52.180;5.646;2023-08-21T00:13:57;16.50;99.90
22249;DHT22;67538;52.180;5.646;2023-08-21T00:16:24;16.50;99.90
22249;DHT22;67538;52.180;5.646;2023-08-21T00:18:55;16.40;99.90
22249;DHT22;67538;52.180;5.646;2023-08-21T00:21:22;16.40;99.90
22249;DHT22;67538;52.180;5.646;2023-08-21T00:23:49;16.40;99.90
22249;DHT22;67538;52.180;5.646;2023-08-21T00:26:16;16.40;99.90
22249;DHT22;67538;52.180;5.646;2023-08-21T00:28:43;16.40;99.90
22249;DHT22;67538;52.180;5.646;2023-08-21T00:31:10;16.40;99.90
22249;DHT22;67538;52.180;5.646;2023-08-21T00:33:38;16.40;99.90
22249;DHT22;67538;52.180;5.646;2023-08-21T00:36:06;16.40;99.90
22249;DHT22;67538;52.180;5.646;2023-08-21T00:38:33;16.40;99.90
22249;DHT22;67538;52.180;5.646;2023-08-21T00:41:00;16.50;99.90
22249;DHT22;67538;52.180;5.646;2023-08-21T00:43:27;16.50;99.90
22249;DHT22;67538;52.180;5.646;2023-08-21T00:45:54;16.40;99.90
22249;DHT22;67538;52.180;5.646;2023-08-21T00:48:21;16.40;99.90
22249;DHT22;67538;52.180;5.646;2023-08-21T00:50:49;16.40;99.90
22249;DHT22;67538;52.180;5.646;2023-08-21T00:53:18;16.40;99.90
22249;DHT22;67538;52.180;5.646;2023-08-21T00:55:45;16.40;99.90
22249;DHT22;67538;52.180;5.646;2023-08-21T00:58:13;16.40;99.90
22249;DHT22;67538;52.180;5.646;2023-08-21T01:00:41;16.40;99.90
22249;DHT22;67538;52.180;5.646;2023-08-21T01:03:08;16.40;99.90
22249;DHT22;67538;52.180;5.646;2023-08-21T01:05:36;16.40;99.90
22249;DHT22;67538;52.180;5.646;2023-08-21T01:08:05;16.40;99.90
22249;DHT22;67538;52.180;5.646;2023-08-21T01:10:41;16.40;99.90
22249;DHT22;67538;52.180;5.646;2023-08-21T01:13:19;16.40;99.90
22249;DHT22;67538;52.180;5.646;2023-08-21T01:15:51;16.40;99.90
22249;DHT22;67538;52.180;5.646;2023-08-21T01:18:20;16.40;99.90
22249;DHT22;67538;52.180;5.646;2023-08-21T01:20:48;16.30;99.90
22249;DHT22;67538;52.180;5.646;2023-08-21T01:23:32;16.30;99.90
22249;DHT22;67538;52.180;5.646;2023-08-21T01:25:59;16.30;99.90
22249;DHT22;67538;52.180;5.646;2023-08-21T01:28:26;16.30;99.90
22249;DHT22;67538;52.180;5.646;2023-08-21T01:30:59;16.30;99.90
22249;DHT22;67538;52.180;5.646;2023-08-21T01:33:30;16.30;99.90
22249;DHT22;67538;52.180;5.646;2023-08-21T01:36:02;16.30;99.90
22249;DHT22;67538;52.180;5.646;2023-08-21T01:38:33;16.30;99.90
22249;DHT22;67538;52.180;5.646;2023-08-21T01:41:01;16.30;99.90
22249;DHT22;67538;52.180;5.646;2023-08-21T01:43:28;16.30;99.90
22249;DHT22;67538;52.180;5.646;2023-08-21T01:45:56;16.30;99.90
22249;DHT22;67538;52.180;5.646;2023-08-21T01:48:23;16.30;99.90
22249;DHT22;67538;52.180;5.646;2023-08-21T01:50:50;16.40;99.90
22249;DHT22;67538;52.180;5.646;2023-08-21T01:53:17;16.40;99.90
22249;DHT22;67538;52.180;5.646;2023-08-21T01:55:45;16.40;99.90
22249;DHT22;67538;52.180;5.646;2023-08-21T01:58:12;16.40;99.90
22249;DHT22;67538;52.180;5.646;2023-08-21T02:00:39;16.40;99.90
22249;DHT22;67538;52.180;5.646;2023-08-21T02:03:06;16.40;99.90
22249;DHT22;67538;52.180;5.646;2023-08-21T02:05:37;16.40;99.90
22249;DHT22;67538;52.180;5.646;2023-08-21T02:08:05;16.50;99.90
22249;DHT22;67538;52.180;5.646;2023-08-21T02:10:33;16.50;99.90
22249;DHT22;67538;52.180;5.646;2023-08-21T02:13:01;16.50;99.90
22249;DHT22;67538;52.180;5.646;2023-08-21T02:15:28;16.50;99.90
22249;DHT22;67538;52.180;5.646;2023-08-21T02:17:55;16.50;99.90
22249;DHT22;67538;52.180;5.646;2023-08-21T02:20:22;16.50;99.90
22249;DHT22;67538;52.180;5.646;2023-08-21T02:22:49;16.50;99.90
22249;DHT22;67538;52.180;5.646;2023-08-21T02:25:16;16.40;99.90
22249;DHT22;67538;52.180;5.646;2023-08-21T02:27:43;16.40;99.90
22249;DHT22;67538;52.180;5.646;2023-08-21T02:30:12;16.40;99.90
22249;DHT22;67538;52.180;5.646;2023-08-21T02:32:39;16.40;99.90
22249;DHT22;67538;52.180;5.646;2023-08-21T02:35:07;16.40;99.90
22249;DHT22;67538;52.180;5.646;2023-08-21T02:37:34;16.40;99.90
22249;DHT22;67538;52.180;5.646;2023-08-21T02:40:06;16.40;99.90
22249;DHT22;67538;52.180;5.646;2023-08-21T02:42:34;16.40;99.90
22249;DHT22;67538;52.180;5.646;2023-08-21T02:45:02;16.40;99.90
22249;DHT22;67538;52.180;5.646;2023-08-21T02:47:35;16.40;99.90
22249;DHT22;67538;52.180;5.646;2023-08-21T02:50:03;16.40;99.90
22249;DHT22;67538;52.180;5.646;2023-08-21T02:52:30;16.40;99.90
22249;DHT22;67538;52.180;5.646;2023-08-21T02:54:57;16.30;99.90
22249;DHT22;67538;52.180;5.646;2023-08-21T02:57:24;16.30;99.90
22249;DHT22;67538;52.180;5.646;2023-08-21T02:59:51;16.20;99.90
22249;DHT22;67538;52.180;5.646;2023-08-21T03:02:19;16.30;99.90
22249;DHT22;67538;52.180;5.646;2023-08-21T03:04:47;16.30;99.90
22249;DHT22;67538;52.180;5.646;2023-08-21T03:07:15;16.30;99.90
22249;DHT22;67538;52.180;5.646;2023-08-21T03:09:42;16.30;99.90
22249;DHT22;67538;52.180;5.646;2023-08-21T03:12:09;16.40;99.90
22249;DHT22;67538;52.180;5.646;2023-08-21T03:14:36;16.30;99.90
22249;DHT22;67538;52.180;5.646;2023-08-21T03:17:03;16.30;99.90
22249;DHT22;67538;52.180;5.646;2023-08-21T03:19:30;16.40;99.90
22249;DHT22;67538;52.180;5.646;2023-08-21T03:21:59;16.40;99.90
22249;DHT22;67538;52.180;5.646;2023-08-21T03:24:26;16.40;99.90
22249;DHT22;67538;52.180;5.646;2023-08-21T03:26:53;16.40;99.90
22249;DHT22;67538;52.180;5.646;2023-08-21T03:29:20;16.30;99.90
22249;DHT22;67538;52.180;5.646;2023-08-21T03:31:53;16.30;99.90
22249;DHT22;67538;52.180;5.646;2023-08-21T03:34:20;16.30;99.90
22249;DHT22;67538;52.180;5.646;2023-08-21T03:36:47;16.20;99.90
22249;DHT22;67538;52.180;5.646;2023-08-21T03:39:15;16.20;99.90
22249;DHT22;67538;52.180;5.646;2023-08-21T03:41:43;16.20;99.90
22249;DHT22;67538;52.180;5.646;2023-08-21T03:44:10;16.20;99.90
22249;DHT22;67538;52.180;5.646;2023-08-21T03:46:37;16.20;99.90
22249;DHT22;67538;52.180;5.646;2023-08-21T03:49:04;16.20;99.90
22249;DHT22;67538;52.180;5.646;2023-08-21T03:51:31;16.10;99.90
22249;DHT22;67538;52.180;5.646;2023-08-21T03:53:58;16.00;99.90
22249;DHT22;67538;52.180;5.646;2023-08-21T03:56:27;15.90;99.90
22249;DHT22;67538;52.180;5.646;2023-08-21T03:58:54;15.90;99.90
22249;DHT22;67538;52.180;5.646;2023-08-21T04:01:21;15.90;99.90
22249;DHT22;67538;52.180;5.646;2023-08-21T04:03:48;15.90;99.90
22249;DHT22;67538;52.180;5.646;2023-08-21T04:06:15;16.00;99.90
22249;DHT22;67538;52.180;5.646;2023-08-21T04:08:42;15.90;99.90
22249;DHT22;67538;52.180;5.646;2023-08-21T04:11:09;15.90;99.90
22249;DHT22;67538;52.180;5.646;2023-08-21T04:13:38;15.90;99.90
22249;DHT22;67538;52.180;5.646;2023-08-21T04:16:05;15.80;99.90
22249;DHT22;67538;52.180;5.646;2023-08-21T04:18:32;15.80;99.90
22249;DHT22;67538;52.180;5.646;2023-08-21T04:20:59;15.80;99.90
22249;DHT22;67538;52.180;5.646;2023-08-21T04:23:26;15.70;99.90
22249;DHT22;67538;52.180;5.646;2023-08-21T04:25:53;15.60;99.90
22249;DHT22;67538;52.180;5.646;2023-08-21T04:28:26;15.60;99.90
22249;DHT22;67538;52.180;5.646;2023-08-21T04:30:54;15.70;99.90
22249;DHT22;67538;52.180;5.646;2023-08-21T04:33:23;15.70;99.90
22249;DHT22;67538;52.180;5.646;2023-08-21T04:35:50;15.80;99.90
22249;DHT22;67538;52.180;5.646;2023-08-21T04:38:17;15.80;99.90
22249;DHT22;67538;52.180;5.646;2023-08-21T04:40:44;15.80;99.90
22249;DHT22;67538;52.180;5.646;2023-08-21T04:43:12;15.80;99.90
22249;DHT22;67538;52.180;5.646;2023-08-21T04:45:45;15.80;99.90
22249;DHT22;67538;52.180;5.646;2023-08-21T04:48:13;15.80;99.90
22249;DHT22;67538;52.180;5.646;2023-08-21T04:50:40;15.80;99.90
22249;DHT22;67538;52.180;5.646;2023-08-21T04:53:07;15.90;99.90
22249;DHT22;67538;52.180;5.646;2023-08-21T04:55:34;15.90;99.90
22249;DHT22;67538;52.180;5.646;2023-08-21T04:58:02;15.90;99.90
22249;DHT22;67538;52.180;5.646;2023-08-21T05:00:30;15.90;99.90
22249;DHT22;67538;52.180;5.646;2023-08-21T05:02:57;15.90;99.90
22249;DHT22;67538;52.180;5.646;2023-08-21T05:05:25;15.90;99.90
22249;DHT22;67538;52.180;5.646;2023-08-21T05:07:53;16.00;99.90
22249;DHT22;67538;52.180;5.646;2023-08-21T05:10:20;16.00;99.90
22249;DHT22;67538;52.180;5.646;2023-08-21T05:12:47;16.00;99.90
22249;DHT22;67538;52.180;5.646;2023-08-21T05:15:14;16.00;99.90
22249;DHT22;67538;52.180;5.646;2023-08-21T05:17:42;16.00;99.90
22249;DHT22;67538;52.180;5.646;2023-08-21T05:20:10;16.00;99.90
22249;DHT22;67538;52.180;5.646;2023-08-21T05:22:41;16.10;99.90
22249;DHT22;67538;52.180;5.646;2023-08-21T05:25:09;16.20;99.90
22249;DHT22;67538;52.180;5.646;2023-08-21T05:27:37;16.20;99.90
22249;DHT22;67538;52.180;5.646;2023-08-21T05:30:05;16.20;99.90
22249;DHT22;67538;52.180;5.646;2023-08-21T05:32:32;16.30;99.90
22249;DHT22;67538;52.180;5.646;2023-08-21T05:34:59;16.30;99.90
22249;DHT22;67538;52.180;5.646;2023-08-21T05:37:26;16.30;99.90
22249;DHT22;67538;52.180;5.646;2023-08-21T05:39:55;16.30;99.90
22249;DHT22;67538;52.180;5.646;2023-08-21T05:42:22;16.30;99.90
22249;DHT22;67538;52.180;5.646;2023-08-21T05:44:49;16.30;99.90
22249;DHT22;67538;52.180;5.646;2023-08-21T05:47:16;16.40;99.90
22249;DHT22;67538;52.180;5.646;2023-08-21T05:49:43;16.40;99.90
22249;DHT22;67538;52.180;5.646;2023-08-21T05:52:10;16.40;99.90
22249;DHT22;67538;52.180;5.646;2023-08-21T05:54:37;16.50;99.90
22249;DHT22;67538;52.180;5.646;2023-08-21T05:57:05;16.60;99.90
22249;DHT22;67538;52.180;5.646;2023-08-21T05:59:33;16.60;99.90
22249;DHT22;67538;52.180;5.646;2023-08-21T06:02:00;16.90;99.90
22249;DHT22;67538;52.180;5.646;2023-08-21T06:04:27;17.20;99.90
22249;DHT22;67538;52.180;5.646;2023-08-21T06:06:54;17.50;99.90
22249;DHT22;67538;52.180;5.646;2023-08-21T06:09:21;18.90;99.90
22249;DHT22;67538;52.180;5.646;2023-08-21T06:11:48;20.90;99.90
22249;DHT22;67538;52.180;5.646;2023-08-21T06:14:17;21.30;99.90
22249;DHT22;67538;52.180;5.646;2023-08-21T06:16:44;20.70;99.90
22249;DHT22;67538;52.180;5.646;2023-08-21T06:19:11;20.90;99.90
22249;DHT22;67538;52.180;5.646;2023-08-21T06:21:38;21.40;99.90
22249;DHT22;67538;52.180;5.646;2023-08-21T06:24:05;22.10;99.90
22249;DHT22;67538;52.180;5.646;2023-08-21T06:26:32;22.30;99.90
22249;DHT22;67538;52.180;5.646;2023-08-21T06:28:59;21.90;99.90
22249;DHT22;67538;52.180;5.646;2023-08-21T06:31:28;21.20;99.90
22249;DHT22;67538;52.180;5.646;2023-08-21T06:33:55;20.60;99.90
22249;DHT22;67538;52.180;5.646;2023-08-21T06:36:22;20.20;99.90
22249;DHT22;67538;52.180;5.646;2023-08-21T06:38:49;20.10;99.90
22249;DHT22;67538;52.180;5.646;2023-08-21T06:41:16;20.30;99.90
22249;DHT22;67538;52.180;5.646;2023-08-21T06:43:44;20.20;99.90
22249;DHT22;67538;52.180;5.646;2023-08-21T06:46:11;20.10;99.90
22249;DHT22;67538;52.180;5.646;2023-08-21T06:48:40;20.00;99.90
22249;DHT22;67538;52.180;5.646;2023-08-21T06:51:07;19.90;99.90
22249;DHT22;67538;52.180;5.646;2023-08-21T06:53:35;20.90;99.90
22249;DHT22;67538;52.180;5.646;2023-08-21T06:56:02;22.60;99.90
22249;DHT22;67538;52.180;5.646;2023-08-21T06:58:29;22.90;99.90
22249;DHT22;67538;52.180;5.646;2023-08-21T07:00:56;22.80;99.90
22249;DHT22;67538;52.180;5.646;2023-08-21T07:03:23;23.10;99.90
22249;DHT22;67538;52.180;5.646;2023-08-21T07:05:55;23.20;99.90
22249;DHT22;67538;52.180;5.646;2023-08-21T07:08:22;22.80;99.90
22249;DHT22;67538;52.180;5.646;2023-08-21T07:10:50;22.50;99.90
22249;DHT22;67538;52.180;5.646;2023-08-21T07:13:17;22.30;99.90
22249;DHT22;67538;52.180;5.646;2023-08-21T07:15:44;22.30;99.90
22249;DHT22;67538;52.180;5.646;2023-08-21T07:18:11;22.60;99.90
22249;DHT22;67538;52.180;5.646;2023-08-21T07:20:38;22.90;99.90
22249;DHT22;67538;52.180;5.646;2023-08-21T07:23:06;25.10;99.90
22249;DHT22;67538;52.180;5.646;2023-08-21T07:25:33;27.10;99.90
22249;DHT22;67538;52.180;5.646;2023-08-21T07:28:01;26.30;99.90
22249;DHT22;67538;52.180;5.646;2023-08-21T07:30:28;25.00;99.90
22249;DHT22;67538;52.180;5.646;2023-08-21T07:32:55;24.30;99.90
22249;DHT22;67538;52.180;5.646;2023-08-21T07:35:22;24.00;99.90
22249;DHT22;67538;52.180;5.646;2023-08-21T07:37:49;23.60;99.90
22249;DHT22;67538;52.180;5.646;2023-08-21T07:40:17;23.50;99.90
22249;DHT22;67538;52.180;5.646;2023-08-21T07:42:44;23.40;99.90
22249;DHT22;67538;52.180;5.646;2023-08-21T07:45:12;23.30;99.90
22249;DHT22;67538;52.180;5.646;2023-08-21T07:47:39;23.30;99.90
22249;DHT22;67538;52.180;5.646;2023-08-21T07:50:06;23.20;99.90
22249;DHT22;67538;52.180;5.646;2023-08-21T07:52:34;23.20;99.90
22249;DHT22;67538;52.180;5.646;2023-08-21T07:55:02;23.10;99.90
22249;DHT22;67538;52.180;5.646;2023-08-21T07:57:31;22.90;99.90
22249;DHT22;67538;52.180;5.646;2023-08-21T07:59:58;22.80;99.90
22249;DHT22;67538;52.180;5.646;2023-08-21T08:02:25;22.70;99.90
22249;DHT22;67538;52.180;5.646;2023-08-21T08:04:52;22.90;99.90
22249;DHT22;67538;52.180;5.646;2023-08-21T08:07:19;23.00;99.90
22249;DHT22;67538;52.180;5.646;2023-08-21T08:09:46;23.40;99.90
22249;DHT22;67538;52.180;5.646;2023-08-21T08:12:13;23.90;99.90
22249;DHT22;67538;52.180;5.646;2023-08-21T08:14:42;24.30;99.90
22249;DHT22;67538;52.180;5.646;2023-08-21T08:17:09;24.90;99.90
22249;DHT22;67538;52.180;5.646;2023-08-21T08:19:36;25.40;99.90
22249;DHT22;67538;52.180;5.646;2023-08-21T08:22:03;25.20;99.90
22249;DHT22;67538;52.180;5.646;2023-08-21T08:24:30;25.00;99.90
22249;DHT22;67538;52.180;5.646;2023-08-21T08:26:57;24.80;99.90
22249;DHT22;67538;52.180;5.646;2023-08-21T08:29:24;25.00;99.90
22249;DHT22;67538;52.180;5.646;2023-08-21T08:31:53;24.50;99.90
22249;DHT22;67538;52.180;5.646;2023-08-21T08:34:20;24.20;99.90
22249;DHT22;67538;52.180;5.646;2023-08-21T08:36:47;23.80;99.90
22249;DHT22;67538;52.180;5.646;2023-08-21T08:39:14;23.40;99.90
22249;DHT22;67538;52.180;5.646;2023-08-21T08:41:50;23.20;99.90
22249;DHT22;67538;52.180;5.646;2023-08-21T08:44:18;22.90;99.90
22249;DHT22;67538;52.180;5.646;2023-08-21T08:46:46;22.60;99.90
22249;DHT22;67538;52.180;5.646;2023-08-21T08:49:15;22.70;99.90
22249;DHT22;67538;52.180;5.646;2023-08-21T08:51:43;22.90;99.90
22249;DHT22;67538;52.180;5.646;2023-08-21T08:54:12;23.20;99.90
22249;DHT22;67538;52.180;5.646;2023-08-21T08:56:39;23.60;99.90
22249;DHT22;67538;52.180;5.646;2023-08-21T08:59:08;23.80;99.90
22249;DHT22;67538;52.180;5.646;2023-08-21T09:01:35;23.70;99.90
22249;DHT22;67538;52.180;5.646;2023-08-21T09:04:03;23.50;99.90
22249;DHT22;67538;52.180;5.646;2023-08-21T09:06:32;23.60;99.90
22249;DHT22;67538;52.180;5.646;2023-08-21T09:08:59;24.00;99.90
22249;DHT22;67538;52.180;5.646;2023-08-21T09:11:26;24.00;99.90
22249;DHT22;67538;52.180;5.646;2023-08-21T09:13:55;23.90;99.90
22249;DHT22;67538;52.180;5.646;2023-08-21T09:16:24;24.20;99.90
22249;DHT22;67538;52.180;5.646;2023-08-21T09:18:53;24.60;99.90
22249;DHT22;67538;52.180;5.646;2023-08-21T09:21:23;24.90;99.90
22249;DHT22;67538;52.180;5.646;2023-08-21T09:23:58;25.10;99.90
22249;DHT22;67538;52.180;5.646;2023-08-21T09:26:26;25.20;99.90
22249;DHT22;67538;52.180;5.646;2023-08-21T09:28:54;25.00;99.90
22249;DHT22;67538;52.180;5.646;2023-08-21T09:31:29;24.60;99.90
22249;DHT22;67538;52.180;5.646;2023-08-21T09:33:57;24.30;99.90
22249;DHT22;67538;52.180;5.646;2023-08-21T09:36:24;24.30;99.90
22249;DHT22;67538;52.180;5.646;2023-08-21T09:38:53;24.40;99.90
22249;DHT22;67538;52.180;5.646;2023-08-21T09:41:21;24.70;99.90
22249;DHT22;67538;52.180;5.646;2023-08-21T09:43:48;25.00;99.90
22249;DHT22;67538;52.180;5.646;2023-08-21T09:46:16;25.10;99.90
22249;DHT22;67538;52.180;5.646;2023-08-21T09:48:44;24.70;99.90
22249;DHT22;67538;52.180;5.646;2023-08-21T09:51:12;24.40;99.90
22249;DHT22;67538;52.180;5.646;2023-08-21T09:53:40;24.40;99.90
22249;DHT22;67538;52.180;5.646;2023-08-21T09:56:09;24.30;99.90
22249;DHT22;67538;52.180;5.646;2023-08-21T09:58:37;24.20;99.90
22249;DHT22;67538;52.180;5.646;2023-08-21T10:01:05;24.20;99.90
22249;DHT22;67538;52.180;5.646;2023-08-21T10:03:39;24.30;99.90
22249;DHT22;67538;52.180;5.646;2023-08-21T10:06:08;24.50;99.90
22249;DHT22;67538;52.180;5.646;2023-08-21T10:08:38;24.50;99.90
22249;DHT22;67538;52.180;5.646;2023-08-21T10:11:06;24.50;99.90
22249;DHT22;67538;52.180;5.646;2023-08-21T10:13:37;24.40;99.90
22249;DHT22;67538;52.180;5.646;2023-08-21T10:16:06;24.50;99.90
22249;DHT22;67538;52.180;5.646;2023-08-21T10:18:35;24.60;99.90
22249;DHT22;67538;52.180;5.646;2023-08-21T10:21:12;24.60;99.90
22249;DHT22;67538;52.180;5.646;2023-08-21T10:23:40;24.60;99.90
22249;DHT22;67538;52.180;5.646;2023-08-21T10:26:09;24.60;99.90
22249;DHT22;67538;52.180;5.646;2023-08-21T10:28:52;24.60;99.90
22249;DHT22;67538;52.180;5.646;2023-08-21T10:31:27;24.50;99.90
22249;DHT22;67538;52.180;5.646;2023-08-21T10:33:54;24.50;99.90
22249;DHT22;67538;52.180;5.646;2023-08-21T10:39:23;24.70;99.90
22249;DHT22;67538;52.180;5.646;2023-08-21T10:41:53;24.70;99.90
22249;DHT22;67538;52.180;5.646;2023-08-21T10:47:20;24.60;99.90
22249;DHT22;67538;52.180;5.646;2023-08-21T10:49:49;24.50;99.90
22249;DHT22;67538;52.180;5.646;2023-08-21T10:52:21;24.50;99.90
22249;DHT22;67538;52.180;5.646;2023-08-21T10:54:50;24.50;99.90
22249;DHT22;67538;52.180;5.646;2023-08-21T10:57:18;24.40;99.90
22249;DHT22;67538;52.180;5.646;2023-08-21T10:59:54;24.50;99.90
22249;DHT22;67538;52.180;5.646;2023-08-21T11:02:21;24.50;99.90
22249;DHT22;67538;52.180;5.646;2023-08-21T11:04:49;24.50;99.90
22249;DHT22;67538;52.180;5.646;2023-08-21T11:07:16;24.50;99.90
22249;DHT22;67538;52.180;5.646;2023-08-21T11:09:43;24.60;99.90
22249;DHT22;67538;52.180;5.646;2023-08-21T11:12:12;24.40;99.90
22249;DHT22;67538;52.180;5.646;2023-08-21T11:14:39;24.10;99.90
22249;DHT22;67538;52.180;5.646;2023-08-21T11:17:08;24.00;99.90
22249;DHT22;67538;52.180;5.646;2023-08-21T11:19:36;24.10;99.90
22249;DHT22;67538;52.180;5.646;2023-08-21T11:22:04;24.30;99.90
22249;DHT22;67538;52.180;5.646;2023-08-21T11:24:42;24.50;99.90
22249;DHT22;67538;52.180;5.646;2023-08-21T11:27:10;24.70;99.90
22249;DHT22;67538;52.180;5.646;2023-08-21T11:29:38;24.70;99.90
22249;DHT22;67538;52.180;5.646;2023-08-21T11:32:15;24.60;99.90
22249;DHT22;67538;52.180;5.646;2023-08-21T11:34:43;24.60;99.90
22249;DHT22;67538;52.180;5.646;2023-08-21T11:37:13;24.70;99.90
22249;DHT22;67538;52.180;5.646;2023-08-21T11:39:44;24.70;99.90
22249;DHT22;67538;52.180;5.646;2023-08-21T11:42:12;24.80;99.90
22249;DHT22;67538;52.180;5.646;2023-08-21T11:44:41;24.80;99.90
22249;DHT22;67538;52.180;5.646;2023-08-21T11:47:08;24.80;99.90
22249;DHT22;67538;52.180;5.646;2023-08-21T11:49:39;24.90;99.90
22249;DHT22;67538;52.180;5.646;2023-08-21T11:52:07;24.90;99.90
22249;DHT22;67538;52.180;5.646;2023-08-21T11:54:34;25.00;99.90
22249;DHT22;67538;52.180;5.646;2023-08-21T11:57:05;25.10;99.90
22249;DHT22;67538;52.180;5.646;2023-08-21T11:59:32;25.20;99.90
22249;DHT22;67538;52.180;5.646;2023-08-21T12:01:59;25.30;99.90
22249;DHT22;67538;52.180;5.646;2023-08-21T12:04:26;25.30;99.90
22249;DHT22;67538;52.180;5.646;2023-08-21T12:06:55;25.40;99.90
22249;DHT22;67538;52.180;5.646;2023-08-21T12:09:22;25.40;99.90
22249;DHT22;67538;52.180;5.646;2023-08-21T12:11:49;25.30;99.90
22249;DHT22;67538;52.180;5.646;2023-08-21T12:14:16;25.20;99.90
22249;DHT22;67538;52.180;5.646;2023-08-21T12:16:43;25.00;99.90
22249;DHT22;67538;52.180;5.646;2023-08-21T12:19:10;25.00;99.90
22249;DHT22;67538;52.180;5.646;2023-08-21T12:21:40;25.10;99.90
22249;DHT22;67538;52.180;5.646;2023-08-21T12:24:08;25.10;99.90
22249;DHT22;67538;52.180;5.646;2023-08-21T12:26:35;25.30;99.90
22249;DHT22;67538;52.180;5.646;2023-08-21T12:29:02;25.30;99.90
22249;DHT22;67538;52.180;5.646;2023-08-21T12:31:29;25.40;99.90
22249;DHT22;67538;52.180;5.646;2023-08-21T12:33:57;25.50;99.90
22249;DHT22;67538;52.180;5.646;2023-08-21T12:36:25;25.60;99.90
22249;DHT22;67538;52.180;5.646;2023-08-21T12:38:52;25.60;99.90
22249;DHT22;67538;52.180;5.646;2023-08-21T12:41:20;25.60;99.90
22249;DHT22;67538;52.180;5.646;2023-08-21T12:43:47;25.60;99.90
22249;DHT22;67538;52.180;5.646;2023-08-21T12:46:14;25.40;99.90
22249;DHT22;67538;52.180;5.646;2023-08-21T12:48:41;25.20;99.90
22249;DHT22;67538;52.180;5.646;2023-08-21T12:51:08;25.10;99.90
22249;DHT22;67538;52.180;5.646;2023-08-21T12:53:35;25.20;99.90
22249;DHT22;67538;52.180;5.646;2023-08-21T12:56:02;25.30;99.90
22249;DHT22;67538;52.180;5.646;2023-08-21T12:58:31;25.40;99.90
22249;DHT22;67538;52.180;5.646;2023-08-21T13:00:58;25.20;99.90
22249;DHT22;67538;52.180;5.646;2023-08-21T13:03:25;25.00;99.90
22249;DHT22;67538;52.180;5.646;2023-08-21T13:05:53;24.80;99.90
22249;DHT22;67538;52.180;5.646;2023-08-21T13:08:20;24.80;99.90
22249;DHT22;67538;52.180;5.646;2023-08-21T13:10:47;24.90;99.90
22249;DHT22;67538;52.180;5.646;2023-08-21T13:13:14;24.70;99.90
22249;DHT22;67538;52.180;5.646;2023-08-21T13:15:42;24.50;99.90
22249;DHT22;67538;52.180;5.646;2023-08-21T13:18:10;24.50;99.90
22249;DHT22;67538;52.180;5.646;2023-08-21T13:20:37;24.70;99.90
22249;DHT22;67538;52.180;5.646;2023-08-21T13:23:04;24.80;99.90
22249;DHT22;67538;52.180;5.646;2023-08-21T13:25:31;24.90;99.90
22249;DHT22;67538;52.180;5.646;2023-08-21T13:28:01;25.00;99.90
22249;DHT22;67538;52.180;5.646;2023-08-21T13:30:29;25.20;99.90
22249;DHT22;67538;52.180;5.646;2023-08-21T13:32:58;25.30;99.90
22249;DHT22;67538;52.180;5.646;2023-08-21T13:35:25;25.40;99.90
22249;DHT22;67538;52.180;5.646;2023-08-21T13:37:52;25.60;99.90
22249;DHT22;67538;52.180;5.646;2023-08-21T13:40:19;25.60;99.90
22249;DHT22;67538;52.180;5.646;2023-08-21T13:42:48;25.60;99.90
22249;DHT22;67538;52.180;5.646;2023-08-21T13:45:16;25.30;99.90
22249;DHT22;67538;52.180;5.646;2023-08-21T13:47:45;25.20;99.90
22249;DHT22;67538;52.180;5.646;2023-08-21T13:50:15;25.00;99.90
22249;DHT22;67538;52.180;5.646;2023-08-21T13:52:43;24.90;99.90
22249;DHT22;67538;52.180;5.646;2023-08-21T13:55:10;24.70;99.90
22249;DHT22;67538;52.180;5.646;2023-08-21T13:57:38;24.60;99.90
22249;DHT22;67538;52.180;5.646;2023-08-21T14:00:07;24.40;99.90
22249;DHT22;67538;52.180;5.646;2023-08-21T14:02:37;24.30;99.90
22249;DHT22;67538;52.180;5.646;2023-08-21T14:05:05;24.10;99.90
22249;DHT22;67538;52.180;5.646;2023-08-21T14:07:34;24.00;99.90
22249;DHT22;67538;52.180;5.646;2023-08-21T14:10:02;24.00;99.90
22249;DHT22;67538;52.180;5.646;2023-08-21T14:12:30;24.20;99.90
22249;DHT22;67538;52.180;5.646;2023-08-21T14:14:58;24.40;99.90
22249;DHT22;67538;52.180;5.646;2023-08-21T14:17:25;24.50;99.90
22249;DHT22;67538;52.180;5.646;2023-08-21T14:19:52;24.60;99.90
22249;DHT22;67538;52.180;5.646;2023-08-21T14:22:19;24.60;99.90
22249;DHT22;67538;52.180;5.646;2023-08-21T14:24:47;24.70;99.90
22249;DHT22;67538;52.180;5.646;2023-08-21T14:27:15;24.80;99.90
22249;DHT22;67538;52.180;5.646;2023-08-21T14:29:42;24.90;99.90
22249;DHT22;67538;52.180;5.646;2023-08-21T14:32:10;25.00;99.90
22249;DHT22;67538;52.180;5.646;2023-08-21T14:34:37;25.00;99.90
22249;DHT22;67538;52.180;5.646;2023-08-21T14:37:04;24.90;99.90
22249;DHT22;67538;52.180;5.646;2023-08-21T14:39:32;24.90;99.90
22249;DHT22;67538;52.180;5.646;2023-08-21T14:42:00;25.00;99.90
22249;DHT22;67538;52.180;5.646;2023-08-21T14:44:28;25.10;99.90
22249;DHT22;67538;52.180;5.646;2023-08-21T14:46:55;25.00;99.90
22249;DHT22;67538;52.180;5.646;2023-08-21T14:49:23;25.00;99.90
22249;DHT22;67538;52.180;5.646;2023-08-21T14:51:50;25.20;99.90
22249;DHT22;67538;52.180;5.646;2023-08-21T14:54:17;25.40;99.90
22249;DHT22;67538;52.180;5.646;2023-08-21T14:56:44;25.50;99.90
22249;DHT22;67538;52.180;5.646;2023-08-21T14:59:14;25.50;99.90
22249;DHT22;67538;52.180;5.646;2023-08-21T15:01:41;25.40;99.90
22249;DHT22;67538;52.180;5.646;2023-08-21T15:04:08;25.20;99.90
22249;DHT22;67538;52.180;5.646;2023-08-21T15:06:37;25.00;99.90
22249;DHT22;67538;52.180;5.646;2023-08-21T15:09:05;24.90;99.90
22249;DHT22;67538;52.180;5.646;2023-08-21T15:11:32;24.70;99.90
22249;DHT22;67538;52.180;5.646;2023-08-21T15:14:01;24.60;99.90
22249;DHT22;67538;52.180;5.646;2023-08-21T15:16:29;24.50;99.90
22249;DHT22;67538;52.180;5.646;2023-08-21T15:18:56;24.50;99.90
22249;DHT22;67538;52.180;5.646;2023-08-21T15:21:24;24.40;99.90
22249;DHT22;67538;52.180;5.646;2023-08-21T15:23:51;24.40;99.90
22249;DHT22;67538;52.180;5.646;2023-08-21T15:26:19;24.30;99.90
22249;DHT22;67538;52.180;5.646;2023-08-21T15:28:46;24.30;99.90
22249;DHT22;67538;52.180;5.646;2023-08-21T15:31:13;24.40;99.90
22249;DHT22;67538;52.180;5.646;2023-08-21T15:33:41;24.50;99.90
22249;DHT22;67538;52.180;5.646;2023-08-21T15:36:09;24.60;99.90
22249;DHT22;67538;52.180;5.646;2023-08-21T15:38:36;24.70;99.90
22249;DHT22;67538;52.180;5.646;2023-08-21T15:41:03;24.80;99.90